createdAt,value
2022-11-16T00:02:16.176Z,40.00
2022-11-16T00:04:44.227Z,41.60
2022-11-16T00:07:12.212Z,41.50
2022-11-16T00:09:40.319Z,37.30
2022-11-16T00:12:10.808Z,35.20
2022-11-16T00:14:38.810Z,39.50
2022-11-16T00:17:06.654Z,41.40
2022-11-16T00:19:34.619Z,39.10
2022-11-16T00:22:06.357Z,36.90
2022-11-16T00:24:34.637Z,41.30
2022-11-16T00:27:02.747Z,42.80
2022-11-16T00:29:30.673Z,39.70
2022-11-16T00:31:58.678Z,38.40
2022-11-16T00:34:35.041Z,36.60
2022-11-16T00:37:03.162Z,37.90
2022-11-16T00:39:31.138Z,37.70
2022-11-16T00:41:59.080Z,39.30
2022-11-16T00:44:27.095Z,33.80
2022-11-16T00:46:55.028Z,33.40
2022-11-16T00:49:22.957Z,32.80
2022-11-16T00:51:50.887Z,33.70
2022-11-16T00:54:19.047Z,37.50
2022-11-16T00:56:47.171Z,30.90
2022-11-16T00:59:15.557Z,36.00
2022-11-16T01:01:43.900Z,36.90
2022-11-16T01:04:12.116Z,33.80
2022-11-16T01:06:39.984Z,31.90
2022-11-16T01:09:07.930Z,33.20
2022-11-16T01:11:58.388Z,33.50
2022-11-16T01:14:26.279Z,30.80
2022-11-16T01:16:54.290Z,34.00
2022-11-16T01:19:22.165Z,26.40
2022-11-16T01:21:50.066Z,29.00
2022-11-16T01:24:18.035Z,30.00
2022-11-16T01:26:46.007Z,32.10
2022-11-16T01:29:14.002Z,37.40
2022-11-16T01:31:52.043Z,29.30
2022-11-16T01:34:20.315Z,34.90
2022-11-16T01:36:49.195Z,40.60
2022-11-16T01:39:18.633Z,32.80
2022-11-16T01:41:56.357Z,32.50
2022-11-16T01:44:33.619Z,32.80
2022-11-16T01:47:16.085Z,31.10
2022-11-16T01:49:47.416Z,43.10
2022-11-16T01:52:18.652Z,33.00
2022-11-16T01:54:47.418Z,30.00
2022-11-16T01:57:21.624Z,39.20
2022-11-16T01:59:59.053Z,31.70
2022-11-16T02:04:58.947Z,30.10
2022-11-16T02:08:05.538Z,31.80
2022-11-16T02:10:37.325Z,32.60
2022-11-16T02:13:26.493Z,34.30
2022-11-16T02:16:02.570Z,32.40
2022-11-16T02:18:38.823Z,34.80
2022-11-16T02:21:14.429Z,33.00
2022-11-16T02:23:42.320Z,38.00
2022-11-16T02:26:13.799Z,30.50
2022-11-16T02:28:47.993Z,28.30
2022-11-16T02:31:19.860Z,29.70
2022-11-16T02:33:49.248Z,34.20
2022-11-16T02:36:19.820Z,29.40
2022-11-16T02:39:09.292Z,30.50
2022-11-16T02:41:39.778Z,26.60
2022-11-16T02:44:28.402Z,31.80
2022-11-16T02:46:58.754Z,31.90
2022-11-16T02:49:28.135Z,30.80
2022-11-16T02:51:56.518Z,25.10
2022-11-16T02:54:25.119Z,32.00
2022-11-16T02:56:57.539Z,25.00
2022-11-16T02:59:33.580Z,32.00
2022-11-16T03:02:21.820Z,27.90
2022-11-16T03:04:56.527Z,32.50
2022-11-16T03:07:27.435Z,30.60
2022-11-16T03:09:56.567Z,32.30
2022-11-16T03:12:29.115Z,38.20
2022-11-16T03:14:59.174Z,33.50
2022-11-16T03:17:32.831Z,35.00
2022-11-16T03:20:12.121Z,35.50
2022-11-16T03:22:46.235Z,36.30
2022-11-16T03:25:15.130Z,31.90
2022-11-16T03:27:54.785Z,32.70
2022-11-16T03:30:24.728Z,35.50
2022-11-16T03:32:56.861Z,34.30
2022-11-16T03:35:35.997Z,39.80
2022-11-16T03:38:04.995Z,33.30
2022-11-16T03:40:33.682Z,30.60
2022-11-16T03:43:03.767Z,38.10
2022-11-16T03:45:32.238Z,32.80
2022-11-16T03:48:00.317Z,33.20
2022-11-16T03:50:28.260Z,30.70
2022-11-16T03:52:56.525Z,33.30
2022-11-16T03:55:24.737Z,35.60
2022-11-16T03:57:52.681Z,27.80
2022-11-16T04:00:20.460Z,35.40
2022-11-16T04:02:48.242Z,34.10
2022-11-16T04:05:40.200Z,29.60
2022-11-16T04:08:34.803Z,34.70
2022-11-16T04:11:22.316Z,28.10
2022-11-16T04:14:09.707Z,25.20
2022-11-16T04:16:58.545Z,25.70
2022-11-16T04:19:46.430Z,28.30
2022-11-16T04:22:42.741Z,27.60
2022-11-16T04:25:13.332Z,25.30
2022-11-16T04:28:00.040Z,25.90
2022-11-16T04:30:48.828Z,24.20
2022-11-16T04:33:35.991Z,23.20
2022-11-16T04:36:22.693Z,27.00
2022-11-16T04:38:50.565Z,24.80
2022-11-16T04:41:37.780Z,19.30
2022-11-16T04:44:06.406Z,24.30
2022-11-16T04:46:54.412Z,19.90
2022-11-16T04:49:22.556Z,20.80
2022-11-16T04:51:50.238Z,21.10
2022-11-16T04:54:18.164Z,20.00
2022-11-16T04:56:46.475Z,21.00
2022-11-16T04:59:14.746Z,20.20
2022-11-16T05:02:01.593Z,19.40
2022-11-16T05:04:30.142Z,15.70
2022-11-16T05:07:10.852Z,14.30
2022-11-16T05:09:41.620Z,14.40
2022-11-16T05:12:11.343Z,14.30
2022-11-16T05:14:39.149Z,14.20
2022-11-16T05:17:07.255Z,16.80
2022-11-16T05:19:54.176Z,17.90
2022-11-16T05:22:23.094Z,14.90
2022-11-16T05:24:52.143Z,9.80
2022-11-16T05:27:20.673Z,12.40
2022-11-16T05:29:49.840Z,9.90
2022-11-16T05:32:20.132Z,11.80
2022-11-16T05:34:49.045Z,7.10
2022-11-16T05:37:19.290Z,7.10
2022-11-16T05:39:47.844Z,10.70
2022-11-16T05:42:16.297Z,6.60
2022-11-16T05:44:44.053Z,7.80
2022-11-16T05:47:12.631Z,10.10
2022-11-16T05:49:47.158Z,6.10
2022-11-16T05:52:23.978Z,6.20
2022-11-16T05:54:51.847Z,7.00
2022-11-16T05:57:19.707Z,8.40
2022-11-16T05:59:54.764Z,7.30
2022-11-16T06:02:22.620Z,8.40
2022-11-16T06:04:50.384Z,4.90
2022-11-16T06:07:18.309Z,4.40
2022-11-16T06:09:53.343Z,8.30
2022-11-16T06:12:30.474Z,4.90
2022-11-16T06:14:58.453Z,3.70
2022-11-16T06:17:26.140Z,9.70
2022-11-16T06:19:54.022Z,4.80
2022-11-16T06:22:22.282Z,4.20
2022-11-16T06:24:50.073Z,6.00
2022-11-16T06:27:18.373Z,50.50
2022-11-16T06:29:46.911Z,34.30
2022-11-16T06:32:14.958Z,41.60
2022-11-16T06:34:43.720Z,30.60
2022-11-16T06:37:11.780Z,36.30
2022-11-16T06:39:39.626Z,30.50
2022-11-16T06:42:09.784Z,10.40
2022-11-16T06:44:37.521Z,54.60
2022-11-16T06:47:05.582Z,64.10
2022-11-16T06:49:34.178Z,92.20
2022-11-16T06:52:03.767Z,93.40
2022-11-16T06:54:31.857Z,45.50
2022-11-16T06:56:59.728Z,40.50
2022-11-16T06:59:34.417Z,20.90
2022-11-16T07:02:02.266Z,20.20
2022-11-16T07:04:31.990Z,10.60
2022-11-16T07:07:00.241Z,23.90
2022-11-16T07:09:28.202Z,23.70
2022-11-16T07:11:56.543Z,9.70
2022-11-16T07:14:31.571Z,16.40
2022-11-16T07:17:02.853Z,26.50
2022-11-16T07:19:32.971Z,13.00
2022-11-16T07:22:01.193Z,11.30
2022-11-16T07:24:32.574Z,4.30
2022-11-16T07:27:00.596Z,3.60
2022-11-16T07:29:30.842Z,5.00
2022-11-16T07:32:17.326Z,12.30
2022-11-16T07:35:05.101Z,3.70
2022-11-16T07:37:32.929Z,10.20
2022-11-16T07:40:00.698Z,5.40
2022-11-16T07:42:29.757Z,6.20
2022-11-16T07:45:20.351Z,13.70
2022-11-16T07:47:55.273Z,31.30
2022-11-16T07:50:41.922Z,55.40
2022-11-16T07:53:09.831Z,61.00
2022-11-16T07:55:39.950Z,50.10
2022-11-16T07:58:08.922Z,54.90
2022-11-16T08:00:37.108Z,12.60
2022-11-16T08:03:10.207Z,23.30
2022-11-16T08:05:38.640Z,74.60
2022-11-16T08:08:07.013Z,14.20
2022-11-16T08:10:42.425Z,112.90
2022-11-16T08:13:10.117Z,77.00
2022-11-16T08:15:37.970Z,64.50
2022-11-16T08:18:07.545Z,60.70
2022-11-16T08:20:36.690Z,94.40
2022-11-16T08:23:04.717Z,52.90
2022-11-16T08:25:38.648Z,18.00
2022-11-16T08:28:06.574Z,23.50
2022-11-16T08:30:52.508Z,25.60
2022-11-16T08:33:41.260Z,7.80
2022-11-16T08:36:22.133Z,15.30
2022-11-16T08:38:51.193Z,20.30
2022-11-16T08:41:21.213Z,17.70
2022-11-16T08:43:50.877Z,19.00
2022-11-16T08:46:19.667Z,16.30
2022-11-16T08:48:54.850Z,9.40
2022-11-16T08:51:29.815Z,15.70
2022-11-16T08:54:04.036Z,7.80
2022-11-16T08:56:32.325Z,11.60
2022-11-16T08:59:00.883Z,5.50
2022-11-16T09:01:30.657Z,6.30
2022-11-16T09:03:59.071Z,2.70
2022-11-16T09:06:27.727Z,3.40
2022-11-16T09:08:56.287Z,2.80
2022-11-16T09:11:24.958Z,2.40
2022-11-16T09:13:54.300Z,3.90
2022-11-16T09:16:23.161Z,3.80
2022-11-16T09:18:57.797Z,3.80
2022-11-16T09:21:27.008Z,7.50
2022-11-16T09:23:55.952Z,6.40
2022-11-16T09:26:24.124Z,4.90
2022-11-16T09:29:03.664Z,8.90
2022-11-16T09:31:32.744Z,4.50
2022-11-16T09:34:00.691Z,3.00
2022-11-16T09:36:29.108Z,4.50
2022-11-16T09:41:56.145Z,2.40
2022-11-16T09:44:43.232Z,2.10
2022-11-16T09:47:17.429Z,3.70
2022-11-16T09:50:01.505Z,2.00
2022-11-16T09:52:44.579Z,2.40
2022-11-16T09:55:24.631Z,1.70
2022-11-16T09:57:53.950Z,4.60
2022-11-16T10:00:25.432Z,6.30
2022-11-16T10:02:59.452Z,2.70
2022-11-16T10:05:29.839Z,2.30
2022-11-16T10:08:15.319Z,4.70
2022-11-16T10:10:47.501Z,9.90
2022-11-16T10:13:30.561Z,7.00
2022-11-16T10:16:04.666Z,2.50
2022-11-16T10:18:35.647Z,2.90
2022-11-16T10:21:07.480Z,2.40
2022-11-16T10:23:43.370Z,4.90
2022-11-16T10:26:14.180Z,2.40
2022-11-16T10:29:01.103Z,4.30
2022-11-16T10:31:49.324Z,4.30
2022-11-16T10:34:22.562Z,7.20
2022-11-16T10:36:50.520Z,16.20
2022-11-16T10:39:20.238Z,2.10
2022-11-16T10:41:51.161Z,8.30
2022-11-16T10:44:41.615Z,3.90
2022-11-16T10:47:17.188Z,6.00
2022-11-16T10:50:02.462Z,4.80
2022-11-16T10:52:30.587Z,4.50
2022-11-16T10:54:58.462Z,4.60
2022-11-16T10:57:46.237Z,4.50
2022-11-16T11:00:32.660Z,6.70
2022-11-16T11:03:00.889Z,7.00
2022-11-16T11:05:29.859Z,11.00
2022-11-16T11:08:02.517Z,16.60
2022-11-16T11:10:36.137Z,5.00
2022-11-16T11:13:10.050Z,12.20
2022-11-16T11:15:39.619Z,6.10
2022-11-16T11:18:13.633Z,4.80
2022-11-16T11:23:30.713Z,2.60
2022-11-16T11:25:59.846Z,1.80
2022-11-16T11:28:35.364Z,4.60
2022-11-16T11:31:09.431Z,2.30
2022-11-16T11:36:07.214Z,4.80
2022-11-16T11:38:54.254Z,4.20
2022-11-16T11:41:22.106Z,27.50
2022-11-16T11:44:06.778Z,31.10
2022-11-16T11:47:11.000Z,34.40
2022-11-16T11:49:52.277Z,76.70
2022-11-16T11:52:27.738Z,113.90
2022-11-16T11:54:56.270Z,3.70
2022-11-16T11:57:25.701Z,2.00
2022-11-16T11:59:54.434Z,7.90
2022-11-16T12:02:33.971Z,6.00
2022-11-16T12:05:14.303Z,14.40
2022-11-16T12:08:01.086Z,22.00
2022-11-16T12:10:32.052Z,15.30
2022-11-16T12:13:16.146Z,15.40
2022-11-16T12:15:48.127Z,10.10
2022-11-16T12:18:33.842Z,37.20
2022-11-16T12:21:15.813Z,17.30
2022-11-16T12:23:43.571Z,13.90
2022-11-16T12:26:11.740Z,10.90
2022-11-16T12:28:54.287Z,18.90
2022-11-16T12:31:25.059Z,9.70
2022-11-16T12:33:52.994Z,15.70
2022-11-16T12:36:50.500Z,19.70
2022-11-16T12:39:26.581Z,28.80
2022-11-16T12:42:13.275Z,19.80
2022-11-16T12:44:59.917Z,22.50
2022-11-16T12:47:36.116Z,19.20
2022-11-16T12:50:19.794Z,22.60
2022-11-16T12:53:08.635Z,29.70
2022-11-16T12:55:55.653Z,36.90
2022-11-16T12:58:31.409Z,59.30
2022-11-16T13:00:59.960Z,22.70
2022-11-16T13:03:40.449Z,17.70
2022-11-16T13:06:17.157Z,28.50
2022-11-16T13:08:57.475Z,21.20
2022-11-16T13:11:32.659Z,38.80
2022-11-16T13:14:02.148Z,26.30
2022-11-16T13:16:34.268Z,8.80
2022-11-16T13:19:05.478Z,17.50
2022-11-16T13:21:38.735Z,33.30
2022-11-16T13:24:25.629Z,47.50
2022-11-16T13:27:19.840Z,77.80
2022-11-16T13:29:55.922Z,76.90
2022-11-16T13:32:43.332Z,85.40
2022-11-16T13:35:16.070Z,17.80
2022-11-16T13:37:48.091Z,10.40
2022-11-16T13:40:25.327Z,31.00
2022-11-16T13:43:02.832Z,29.50
2022-11-16T13:45:33.159Z,44.60
2022-11-16T13:48:01.410Z,102.70
2022-11-16T13:50:37.213Z,9.20
2022-11-16T13:56:03.211Z,21.90
2022-11-16T13:58:32.131Z,18.60
2022-11-16T14:01:08.974Z,21.60
2022-11-16T14:03:40.673Z,27.50
2022-11-16T14:06:23.882Z,13.50
2022-11-16T14:08:59.523Z,21.50
2022-11-16T14:11:35.751Z,12.30
2022-11-16T14:14:05.952Z,12.90
2022-11-16T14:16:47.919Z,21.40
2022-11-16T14:19:37.165Z,5.70
2022-11-16T14:22:25.020Z,54.70
2022-11-16T14:24:58.356Z,47.50
2022-11-16T14:27:34.139Z,25.50
2022-11-16T14:30:12.588Z,21.60
2022-11-16T14:32:44.407Z,42.40
2022-11-16T14:35:31.249Z,43.80
2022-11-16T14:38:00.320Z,18.80
2022-11-16T14:40:28.148Z,44.30
2022-11-16T14:45:52.143Z,124.60
2022-11-16T14:48:21.180Z,51.80
2022-11-16T14:51:10.475Z,51.30
2022-11-16T14:53:40.990Z,52.00
2022-11-16T14:56:10.864Z,23.30
2022-11-16T14:58:39.543Z,21.70
2022-11-16T15:01:12.541Z,24.70
2022-11-16T15:03:43.222Z,20.90
2022-11-16T15:06:11.346Z,59.20
2022-11-16T15:08:44.614Z,16.80
2022-11-16T15:11:20.452Z,31.50
2022-11-16T15:13:56.805Z,20.40
2022-11-16T15:16:25.312Z,20.50
2022-11-16T15:18:57.630Z,11.10
2022-11-16T15:21:25.794Z,21.80
2022-11-16T15:24:23.588Z,8.50
2022-11-16T15:26:41.704Z,25.60
2022-11-16T15:29:14.103Z,39.50
2022-11-16T15:31:42.352Z,14.70
2022-11-16T15:34:15.907Z,19.50
2022-11-16T15:36:44.240Z,58.90
2022-11-16T15:39:22.853Z,231.00
2022-11-16T15:41:51.457Z,25.40
2022-11-16T15:44:20.502Z,10.00
2022-11-16T15:46:49.614Z,13.30
2022-11-16T15:49:27.821Z,26.00
2022-11-16T15:51:57.315Z,11.50
2022-11-16T15:54:30.019Z,17.90
2022-11-16T15:57:11.924Z,22.00
2022-11-16T15:59:39.607Z,31.30
2022-11-16T16:02:15.207Z,19.40
2022-11-16T16:04:43.613Z,14.90
2022-11-16T16:07:12.686Z,31.20
2022-11-16T16:09:41.065Z,96.00
2022-11-16T16:12:12.049Z,15.90
2022-11-16T16:14:39.866Z,16.10
2022-11-16T16:17:08.697Z,13.10
2022-11-16T16:19:41.466Z,14.60
2022-11-16T16:22:14.036Z,15.60
2022-11-16T16:24:46.019Z,18.50
2022-11-16T16:27:13.865Z,15.70
2022-11-16T16:29:41.647Z,14.30
2022-11-16T16:32:13.012Z,19.80
2022-11-16T16:34:53.796Z,19.80
2022-11-16T16:37:25.954Z,16.50
2022-11-16T16:39:53.838Z,15.10
2022-11-16T16:42:22.107Z,17.20
2022-11-16T16:44:51.108Z,29.00
2022-11-16T16:47:22.771Z,25.60
2022-11-16T16:49:50.676Z,22.10
2022-11-16T16:52:18.498Z,27.00
2022-11-16T16:54:46.406Z,33.60
2022-11-16T16:57:21.205Z,21.80
2022-11-16T16:59:55.819Z,22.60
2022-11-16T17:02:26.923Z,34.10
2022-11-16T17:04:55.202Z,22.70
2022-11-16T17:07:23.135Z,19.40
2022-11-16T17:09:51.607Z,20.30
2022-11-16T17:12:19.363Z,31.10
2022-11-16T17:14:51.618Z,31.70
2022-11-16T17:17:20.000Z,30.80
2022-11-16T17:19:47.844Z,21.60
2022-11-16T17:22:15.808Z,19.70
2022-11-16T17:24:43.689Z,11.50
2022-11-16T17:27:11.640Z,20.90
2022-11-16T17:29:40.665Z,17.80
2022-11-16T17:32:08.853Z,23.00
2022-11-16T17:34:40.158Z,54.00
2022-11-16T17:37:07.955Z,13.40
2022-11-16T17:39:38.049Z,18.30
2022-11-16T17:42:05.843Z,21.40
2022-11-16T17:44:33.893Z,24.60
2022-11-16T17:47:02.410Z,20.30
2022-11-16T17:49:30.535Z,47.70
2022-11-16T17:51:58.467Z,27.90
2022-11-16T17:54:27.129Z,44.50
2022-11-16T17:56:55.354Z,25.00
2022-11-16T17:59:28.065Z,15.70
2022-11-16T18:04:26.399Z,9.90
2022-11-16T18:06:54.557Z,32.20
2022-11-16T18:09:22.455Z,16.30
2022-11-16T18:11:50.303Z,25.80
2022-11-16T18:14:18.068Z,54.60
2022-11-16T18:16:47.938Z,13.90
2022-11-16T18:19:17.081Z,72.00
2022-11-16T18:21:48.632Z,36.90
2022-11-16T18:24:23.049Z,60.30
2022-11-16T18:26:50.963Z,38.10
2022-11-16T18:29:19.537Z,44.30
2022-11-16T18:31:47.732Z,47.60
2022-11-16T18:34:19.635Z,14.90
2022-11-16T18:36:51.287Z,36.10
2022-11-16T18:39:19.395Z,7.90
2022-11-16T18:41:53.456Z,21.30
2022-11-16T18:44:22.978Z,22.70
2022-11-16T18:46:50.862Z,42.80
2022-11-16T18:49:18.770Z,29.20
2022-11-16T18:51:47.602Z,45.50
2022-11-16T18:54:15.796Z,20.00
2022-11-16T18:56:43.863Z,16.50
2022-11-16T18:59:11.652Z,22.70
2022-11-16T19:01:39.614Z,81.60
2022-11-16T19:04:08.871Z,41.10
2022-11-16T19:06:37.422Z,55.60
2022-11-16T19:09:12.742Z,35.00
2022-11-16T19:11:40.553Z,32.70
2022-11-16T19:14:08.296Z,111.10
2022-11-16T19:16:36.222Z,72.80
2022-11-16T19:19:06.616Z,90.30
2022-11-16T19:21:34.452Z,61.70
2022-11-16T19:24:02.446Z,157.40
2022-11-16T19:26:30.470Z,179.50
2022-11-16T19:28:58.603Z,232.30
2022-11-16T19:31:33.238Z,132.70
2022-11-16T19:34:06.005Z,70.10
2022-11-16T19:36:38.823Z,17.20
2022-11-16T19:39:06.681Z,22.40
2022-11-16T19:41:34.394Z,23.70
2022-11-16T19:44:02.259Z,15.80
2022-11-16T19:46:33.801Z,12.90
2022-11-16T19:49:01.839Z,94.00
2022-11-16T19:51:31.388Z,62.20
2022-11-16T19:54:00.286Z,49.20
2022-11-16T19:56:28.616Z,50.90
2022-11-16T19:58:57.163Z,53.10
2022-11-16T20:01:28.023Z,37.90
2022-11-16T20:03:57.392Z,180.20
2022-11-16T20:06:26.705Z,145.70
2022-11-16T20:08:56.098Z,81.10
2022-11-16T20:11:25.023Z,63.30
2022-11-16T20:13:54.391Z,41.80
2022-11-16T20:16:26.695Z,84.70
2022-11-16T20:18:54.903Z,65.80
2022-11-16T20:21:29.143Z,45.40
2022-11-16T20:24:03.055Z,30.60
2022-11-16T20:26:34.933Z,22.20
2022-11-16T20:29:03.580Z,26.80
2022-11-16T20:31:32.836Z,32.90
2022-11-16T20:34:02.798Z,27.10
2022-11-16T20:36:31.607Z,12.90
2022-11-16T20:39:03.346Z,13.30
2022-11-16T20:41:36.628Z,14.60
2022-11-16T20:44:04.534Z,19.70
2022-11-16T20:46:33.800Z,32.40
2022-11-16T20:49:02.044Z,20.60
2022-11-16T20:51:32.801Z,14.80
2022-11-16T20:54:00.760Z,13.90
2022-11-16T20:56:28.865Z,11.20
2022-11-16T20:58:58.024Z,12.30
2022-11-16T21:01:33.161Z,14.40
2022-11-16T21:04:02.323Z,17.30
2022-11-16T21:06:30.448Z,12.40
2022-11-16T21:08:59.873Z,9.80
2022-11-16T21:11:29.610Z,18.00
2022-11-16T21:14:16.093Z,15.00
2022-11-16T21:16:44.364Z,9.90
2022-11-16T21:19:12.767Z,16.70
2022-11-16T21:21:41.009Z,14.60
2022-11-16T21:24:09.373Z,18.00
2022-11-16T21:26:37.664Z,18.00
2022-11-16T21:29:06.806Z,29.50
2022-11-16T21:31:36.193Z,26.10
2022-11-16T21:34:10.958Z,24.60
2022-11-16T21:36:39.429Z,15.60
2022-11-16T21:39:07.383Z,13.20
2022-11-16T21:41:35.362Z,8.20
2022-11-16T21:44:03.613Z,22.40
2022-11-16T21:46:31.360Z,13.80
2022-11-16T21:48:59.272Z,12.30
2022-11-16T21:51:27.169Z,7.90
2022-11-16T21:53:55.328Z,6.70
2022-11-16T21:56:30.246Z,12.90
2022-11-16T21:58:58.537Z,13.80
2022-11-16T22:01:46.498Z,12.60
2022-11-16T22:04:33.333Z,11.50
2022-11-16T22:07:20.243Z,27.40
2022-11-16T22:09:48.340Z,12.60
2022-11-16T22:12:16.235Z,12.10
2022-11-16T22:14:44.106Z,17.50
2022-11-16T22:17:11.902Z,22.80
2022-11-16T22:19:39.567Z,26.80
2022-11-16T22:22:07.314Z,23.20
2022-11-16T22:24:41.703Z,16.20
2022-11-16T22:27:09.582Z,23.80
2022-11-16T22:29:37.556Z,18.00
2022-11-16T22:32:05.327Z,16.80
2022-11-16T22:34:33.154Z,17.50
2022-11-16T22:37:01.156Z,44.50
2022-11-16T22:39:28.892Z,20.00
2022-11-16T22:41:56.791Z,24.60
2022-11-16T22:44:24.686Z,16.30
2022-11-16T22:46:52.775Z,12.70
2022-11-16T22:49:20.502Z,8.30
2022-11-16T22:51:48.303Z,13.80
2022-11-16T22:54:16.511Z,12.10
2022-11-16T22:56:44.392Z,12.30
2022-11-16T22:59:12.215Z,12.80
2022-11-16T23:01:40.132Z,4.70
2022-11-16T23:04:07.886Z,7.90
2022-11-16T23:06:36.043Z,5.90
2022-11-16T23:09:07.950Z,9.90
2022-11-16T23:11:56.309Z,11.50
2022-11-16T23:14:42.842Z,5.20
2022-11-16T23:17:16.646Z,8.60
2022-11-16T23:20:07.623Z,5.30
2022-11-16T23:22:54.219Z,8.00
2022-11-16T23:25:40.763Z,17.40
2022-11-16T23:28:16.159Z,11.80
2022-11-16T23:30:44.004Z,11.50
2022-11-16T23:33:11.762Z,10.50
2022-11-16T23:35:39.454Z,7.20
2022-11-16T23:38:07.669Z,7.00
2022-11-16T23:40:36.418Z,8.90
2022-11-16T23:43:23.611Z,18.50
2022-11-16T23:45:51.412Z,19.70
2022-11-16T23:48:19.829Z,13.20
2022-11-16T23:50:47.833Z,9.40
2022-11-16T23:53:15.796Z,11.70
2022-11-16T23:55:43.483Z,5.30
2022-11-16T23:58:13.514Z,4.40
